Elmira Heights, New York
Current Conditions -  °F | °C
As of 4:53 PM on Friday 31 Oct 2014 (Local Time) from KELM Reporting Station
Overcast Overcast  
Wind Chill: 50°   Ceiling: 6000
Heat Index: 50°   Visibility: 10mi
Dew Point: 34°   Wind: 5mph
Humidity: 54%   Direction: 60°ENE
Pressure: 29.88"   Gusts: NA
Location:  42.1258°N, 76.8803°W
Report Text: KELM 312053Z 06004KT 10SM OVC060 10/01 A2988 RMK AO2 SLP125 T01000011 56010
Loading
Personal Weather Stations






























Interactive Weather Map
Tropical Storm Tracking
New forecast layout! Learn more

10-Day Weather Forecast

Advertisements
Track Severe Weather on mobile